sensor_id;sensor_type;location;lat;lon;timestamp;pressure;altitude;pressure_sealevel;temperature;humidity
49945;BME280;35838;49.134;9.212;2023-06-22T00:00:07;99902.97;;;22.22;100.00
49945;BME280;35838;49.134;9.212;2023-06-22T00:01:45;99908.44;;;22.19;100.00
49945;BME280;35838;49.134;9.212;2023-06-22T00:03:19;99917.44;;;22.15;100.00
49945;BME280;35838;49.134;9.212;2023-06-22T00:04:53;99917.19;;;22.19;100.00
49945;BME280;35838;49.134;9.212;2023-06-22T00:06:27;99911.63;;;22.08;100.00
49945;BME280;35838;49.134;9.212;2023-06-22T00:08:02;99917.75;;;22.09;100.00
49945;BME280;35838;49.134;9.212;2023-06-22T00:09:35;99909.50;;;22.15;100.00
49945;BME280;35838;49.134;9.212;2023-06-22T00:11:09;99908.56;;;22.16;100.00
49945;BME280;35838;49.134;9.212;2023-06-22T00:12:43;99903.63;;;22.10;100.00
49945;BME280;35838;49.134;9.212;2023-06-22T00:14:16;99899.19;;;22.10;100.00
49945;BME280;35838;49.134;9.212;2023-06-22T00:15:50;99896.06;;;22.02;100.00
49945;BME280;35838;49.134;9.212;2023-06-22T00:17:23;99882.81;;;22.03;100.00
49945;BME280;35838;49.134;9.212;2023-06-22T00:18:57;99883.66;;;22.04;100.00
49945;BME280;35838;49.134;9.212;2023-06-22T00:20:31;99880.06;;;22.05;100.00
49945;BME280;35838;49.134;9.212;2023-06-22T00:22:03;99881.09;;;22.02;100.00
49945;BME280;35838;49.134;9.212;2023-06-22T00:23:37;99876.81;;;22.00;100.00
49945;BME280;35838;49.134;9.212;2023-06-22T00:25:12;99878.69;;;21.98;100.00
49945;BME280;35838;49.134;9.212;2023-06-22T00:26:45;99882.41;;;21.94;100.00
49945;BME280;35838;49.134;9.212;2023-06-22T00:28:19;99874.34;;;21.97;100.00
49945;BME280;35838;49.134;9.212;2023-06-22T00:29:50;99880.56;;;21.96;100.00
49945;BME280;35838;49.134;9.212;2023-06-22T00:31:24;99883.66;;;22.04;100.00
49945;BME280;35838;49.134;9.212;2023-06-22T00:33:00;99883.59;;;21.88;100.00
49945;BME280;35838;49.134;9.212;2023-06-22T00:34:33;99887.25;;;21.85;100.00
49945;BME280;35838;49.134;9.212;2023-06-22T00:36:07;99897.91;;;21.84;100.00
49945;BME280;35838;49.134;9.212;2023-06-22T00:37:43;99899.59;;;21.85;100.00
49945;BME280;35838;49.134;9.212;2023-06-22T00:39:14;99905.19;;;21.79;100.00
49945;BME280;35838;49.134;9.212;2023-06-22T00:40:48;99910.41;;;21.80;100.00
49945;BME280;35838;49.134;9.212;2023-06-22T00:42:22;99903.69;;;21.73;100.00
49945;BME280;35838;49.134;9.212;2023-06-22T00:43:52;99902.63;;;21.77;100.00
49945;BME280;35838;49.134;9.212;2023-06-22T00:45:26;99911.34;;;21.79;100.00
49945;BME280;35838;49.134;9.212;2023-06-22T00:47:00;99910.22;;;21.83;100.00
49945;BME280;35838;49.134;9.212;2023-06-22T00:48:36;99906.44;;;21.89;100.00
49945;BME280;35838;49.134;9.212;2023-06-22T00:50:13;99915.03;;;21.92;100.00
49945;BME280;35838;49.134;9.212;2023-06-22T00:51:49;99919.41;;;21.94;100.00
49945;BME280;35838;49.134;9.212;2023-06-22T00:53:22;99919.50;;;21.92;100.00
49945;BME280;35838;49.134;9.212;2023-06-22T00:54:56;99924.88;;;21.90;100.00
49945;BME280;35838;49.134;9.212;2023-06-22T00:56:27;99928.25;;;21.92;100.00
49945;BME280;35838;49.134;9.212;2023-06-22T00:58:01;99931.13;;;21.88;100.00
49945;BME280;35838;49.134;9.212;2023-06-22T00:59:36;99941.88;;;21.85;100.00
49945;BME280;35838;49.134;9.212;2023-06-22T01:01:07;99941.31;;;21.78;100.00
49945;BME280;35838;49.134;9.212;2023-06-22T01:02:41;99947.44;;;21.79;100.00
49945;BME280;35838;49.134;9.212;2023-06-22T01:04:14;99967.59;;;21.81;100.00
49945;BME280;35838;49.134;9.212;2023-06-22T01:05:49;99999.81;;;21.88;100.00
49945;BME280;35838;49.134;9.212;2023-06-22T01:07:24;100032.66;;;21.82;100.00
49945;BME280;35838;49.134;9.212;2023-06-22T01:09:05;100089.88;;;21.45;100.00
49945;BME280;35838;49.134;9.212;2023-06-22T01:10:41;100116.63;;;21.37;100.00
49945;BME280;35838;49.134;9.212;2023-06-22T01:12:16;100108.34;;;21.45;100.00
49945;BME280;35838;49.134;9.212;2023-06-22T01:13:50;100081.34;;;21.57;100.00
49945;BME280;35838;49.134;9.212;2023-06-22T01:15:28;100060.53;;;21.70;100.00
49945;BME280;35838;49.134;9.212;2023-06-22T01:17:03;100054.03;;;21.78;100.00
49945;BME280;35838;49.134;9.212;2023-06-22T01:18:40;100053.66;;;21.85;100.00
49945;BME280;35838;49.134;9.212;2023-06-22T01:20:16;100037.38;;;21.95;100.00
49945;BME280;35838;49.134;9.212;2023-06-22T01:21:50;100023.78;;;22.02;100.00
49945;BME280;35838;49.134;9.212;2023-06-22T01:23:26;100021.91;;;22.04;100.00
49945;BME280;35838;49.134;9.212;2023-06-22T01:25:05;100016.59;;;22.04;100.00
49945;BME280;35838;49.134;9.212;2023-06-22T01:26:39;100007.97;;;21.83;100.00
49945;BME280;35838;49.134;9.212;2023-06-22T01:28:23;100018.25;;;21.89;100.00
49945;BME280;35838;49.134;9.212;2023-06-22T01:29:57;100008.44;;;21.91;100.00
49945;BME280;35838;49.134;9.212;2023-06-22T01:31:32;99996.03;;;21.94;100.00
49945;BME280;35838;49.134;9.212;2023-06-22T01:33:06;99983.97;;;21.88;100.00
49945;BME280;35838;49.134;9.212;2023-06-22T01:34:41;99977.97;;;21.84;100.00
49945;BME280;35838;49.134;9.212;2023-06-22T01:36:13;99974.50;;;21.84;100.00
49945;BME280;35838;49.134;9.212;2023-06-22T01:37:47;99975.44;;;21.83;100.00
49945;BME280;35838;49.134;9.212;2023-06-22T01:39:21;99983.34;;;21.83;100.00
49945;BME280;35838;49.134;9.212;2023-06-22T01:40:55;99973.97;;;21.95;100.00
49945;BME280;35838;49.134;9.212;2023-06-22T01:42:30;99974.03;;;21.93;100.00
49945;BME280;35838;49.134;9.212;2023-06-22T01:44:05;99966.72;;;21.81;100.00
49945;BME280;35838;49.134;9.212;2023-06-22T01:45:41;99964.31;;;21.76;100.00
49945;BME280;35838;49.134;9.212;2023-06-22T01:47:15;99962.44;;;21.78;100.00
49945;BME280;35838;49.134;9.212;2023-06-22T01:48:50;99957.63;;;21.69;100.00
49945;BME280;35838;49.134;9.212;2023-06-22T01:50:24;99950.63;;;21.68;100.00
49945;BME280;35838;49.134;9.212;2023-06-22T01:51:55;99951.56;;;21.67;100.00
49945;BME280;35838;49.134;9.212;2023-06-22T01:53:29;99943.56;;;21.68;100.00
49945;BME280;35838;49.134;9.212;2023-06-22T01:55:03;99940.84;;;21.70;100.00
49945;BME280;35838;49.134;9.212;2023-06-22T01:56:38;99942.56;;;21.71;100.00
49945;BME280;35838;49.134;9.212;2023-06-22T01:58:12;99948.59;;;21.73;100.00
49945;BME280;35838;49.134;9.212;2023-06-22T01:59:48;99943.56;;;21.49;100.00
49945;BME280;35838;49.134;9.212;2023-06-22T02:01:30;99949.97;;;21.45;100.00
49945;BME280;35838;49.134;9.212;2023-06-22T02:03:05;99950.72;;;21.47;100.00
49945;BME280;35838;49.134;9.212;2023-06-22T02:04:43;99948.94;;;21.48;100.00
49945;BME280;35838;49.134;9.212;2023-06-22T02:06:19;99943.53;;;21.51;100.00
49945;BME280;35838;49.134;9.212;2023-06-22T02:07:56;99940.91;;;21.32;100.00
49945;BME280;35838;49.134;9.212;2023-06-22T02:09:33;99939.75;;;21.37;100.00
49945;BME280;35838;49.134;9.212;2023-06-22T02:11:09;99943.81;;;21.44;100.00
49945;BME280;35838;49.134;9.212;2023-06-22T02:12:43;99946.22;;;21.49;100.00
49945;BME280;35838;49.134;9.212;2023-06-22T02:14:17;99951.34;;;21.52;100.00
49945;BME280;35838;49.134;9.212;2023-06-22T02:15:48;99950.25;;;21.58;100.00
49945;BME280;35838;49.134;9.212;2023-06-22T02:17:25;99949.13;;;21.62;100.00
49945;BME280;35838;49.134;9.212;2023-06-22T02:18:59;99953.63;;;21.60;100.00
49945;BME280;35838;49.134;9.212;2023-06-22T02:20:36;99952.78;;;21.59;100.00
49945;BME280;35838;49.134;9.212;2023-06-22T02:22:10;99950.63;;;21.68;100.00
49945;BME280;35838;49.134;9.212;2023-06-22T02:23:44;99945.66;;;21.62;100.00
49945;BME280;35838;49.134;9.212;2023-06-22T02:25:17;99951.97;;;21.57;100.00
49945;BME280;35838;49.134;9.212;2023-06-22T02:26:51;99945.16;;;21.53;100.00
49945;BME280;35838;49.134;9.212;2023-06-22T02:28:22;99949.34;;;21.57;100.00
49945;BME280;35838;49.134;9.212;2023-06-22T02:29:56;99946.00;;;21.54;100.00
49945;BME280;35838;49.134;9.212;2023-06-22T02:31:27;99949.50;;;21.54;100.00
49945;BME280;35838;49.134;9.212;2023-06-22T02:33:03;99940.78;;;21.52;100.00
49945;BME280;35838;49.134;9.212;2023-06-22T02:34:37;99935.03;;;21.44;100.00
49945;BME280;35838;49.134;9.212;2023-06-22T02:36:10;99944.69;;;21.45;100.00
49945;BME280;35838;49.134;9.212;2023-06-22T02:37:43;99940.94;;;21.49;100.00
49945;BME280;35838;49.134;9.212;2023-06-22T02:39:18;99934.94;;;21.45;100.00
49945;BME280;35838;49.134;9.212;2023-06-22T02:40:49;99932.97;;;21.51;100.00
49945;BME280;35838;49.134;9.212;2023-06-22T02:42:23;99930.25;;;21.52;100.00
49945;BME280;35838;49.134;9.212;2023-06-22T02:43:57;99930.25;;;21.52;100.00
49945;BME280;35838;49.134;9.212;2023-06-22T02:45:28;99925.78;;;21.53;100.00
49945;BME280;35838;49.134;9.212;2023-06-22T02:47:02;99931.06;;;21.53;100.00
49945;BME280;35838;49.134;9.212;2023-06-22T02:48:35;99924.75;;;21.38;100.00
49945;BME280;35838;49.134;9.212;2023-06-22T02:50:09;99927.59;;;21.16;100.00
49945;BME280;35838;49.134;9.212;2023-06-22T02:51:45;99924.22;;;21.12;100.00
49945;BME280;35838;49.134;9.212;2023-06-22T02:53:19;99927.59;;;21.16;100.00
49945;BME280;35838;49.134;9.212;2023-06-22T02:54:52;99929.88;;;21.23;100.00
49945;BME280;35838;49.134;9.212;2023-06-22T02:56:27;99928.16;;;21.22;100.00
49945;BME280;35838;49.134;9.212;2023-06-22T02:57:58;99922.34;;;21.16;100.00
49945;BME280;35838;49.134;9.212;2023-06-22T02:59:35;99922.78;;;21.06;100.00
49945;BME280;35838;49.134;9.212;2023-06-22T03:01:11;99927.66;;;21.14;100.00
49945;BME280;35838;49.134;9.212;2023-06-22T03:02:44;99928.59;;;21.13;100.00
49945;BME280;35838;49.134;9.212;2023-06-22T03:04:21;99932.88;;;21.16;100.00
49945;BME280;35838;49.134;9.212;2023-06-22T03:05:54;99933.88;;;21.13;100.00
49945;BME280;35838;49.134;9.212;2023-06-22T03:07:25;99936.22;;;21.19;100.00
49945;BME280;35838;49.134;9.212;2023-06-22T03:09:02;99925.81;;;21.16;100.00
49945;BME280;35838;49.134;9.212;2023-06-22T03:10:34;99925.50;;;21.22;100.00
49945;BME280;35838;49.134;9.212;2023-06-22T03:12:08;99918.72;;;21.17;100.00
49945;BME280;35838;49.134;9.212;2023-06-22T03:13:42;99921.94;;;21.23;100.00
49945;BME280;35838;49.134;9.212;2023-06-22T03:15:17;99929.63;;;21.28;100.00
49945;BME280;35838;49.134;9.212;2023-06-22T03:16:50;99920.88;;;21.27;100.00
49945;BME280;35838;49.134;9.212;2023-06-22T03:18:24;99916.59;;;21.25;100.00
49945;BME280;35838;49.134;9.212;2023-06-22T03:20:00;99914.50;;;21.32;100.00
49945;BME280;35838;49.134;9.212;2023-06-22T03:21:39;99915.44;;;21.31;100.00
49945;BME280;35838;49.134;9.212;2023-06-22T03:23:13;99914.50;;;21.32;100.00
49945;BME280;35838;49.134;9.212;2023-06-22T03:24:47;99919.88;;;21.30;100.00
49945;BME280;35838;49.134;9.212;2023-06-22T03:26:20;99912.34;;;21.40;100.00
49945;BME280;35838;49.134;9.212;2023-06-22T03:27:54;99911.56;;;21.38;100.00
49945;BME280;35838;49.134;9.212;2023-06-22T03:29:27;99910.72;;;21.37;100.00
49945;BME280;35838;49.134;9.212;2023-06-22T03:31:01;99902.88;;;21.36;100.00
49945;BME280;35838;49.134;9.212;2023-06-22T03:32:34;99895.91;;;21.35;100.00
49945;BME280;35838;49.134;9.212;2023-06-22T03:34:08;99896.59;;;21.38;100.00
49945;BME280;35838;49.134;9.212;2023-06-22T03:35:44;99897.28;;;21.42;100.00
49945;BME280;35838;49.134;9.212;2023-06-22T03:37:18;99895.50;;;21.42;100.00
49945;BME280;35838;49.134;9.212;2023-06-22T03:38:52;99896.50;;;21.40;100.00
49945;BME280;35838;49.134;9.212;2023-06-22T03:40:25;99893.03;;;21.39;100.00
49945;BME280;35838;49.134;9.212;2023-06-22T03:42:00;99901.72;;;21.41;100.00
49945;BME280;35838;49.134;9.212;2023-06-22T03:43:33;99900.38;;;21.33;100.00
49945;BME280;35838;49.134;9.212;2023-06-22T03:45:07;99899.75;;;21.27;100.00
49945;BME280;35838;49.134;9.212;2023-06-22T03:46:41;99902.47;;;21.26;100.00
49945;BME280;35838;49.134;9.212;2023-06-22T03:48:15;99904.34;;;21.24;100.00
49945;BME280;35838;49.134;9.212;2023-06-22T03:49:48;99904.41;;;21.22;100.00
49945;BME280;35838;49.134;9.212;2023-06-22T03:51:28;99900.47;;;21.12;100.00
49945;BME280;35838;49.134;9.212;2023-06-22T03:53:01;99901.94;;;21.19;100.00
49945;BME280;35838;49.134;9.212;2023-06-22T03:54:35;99906.09;;;21.23;100.00
49945;BME280;35838;49.134;9.212;2023-06-22T03:56:08;99909.66;;;21.22;100.00
49945;BME280;35838;49.134;9.212;2023-06-22T03:57:39;99910.25;;;21.29;100.00
49945;BME280;35838;49.134;9.212;2023-06-22T03:59:13;99915.38;;;21.32;100.00
49945;BME280;35838;49.134;9.212;2023-06-22T04:00:47;99905.06;;;21.45;100.00
49945;BME280;35838;49.134;9.212;2023-06-22T04:02:21;99902.56;;;21.42;100.00
49945;BME280;35838;49.134;9.212;2023-06-22T04:03:54;99909.00;;;21.36;100.00
49945;BME280;35838;49.134;9.212;2023-06-22T04:05:28;99904.88;;;21.31;100.00
49945;BME280;35838;49.134;9.212;2023-06-22T04:07:04;99906.75;;;21.28;100.00
49945;BME280;35838;49.134;9.212;2023-06-22T04:08:38;99903.47;;;21.23;100.00
49945;BME280;35838;49.134;9.212;2023-06-22T04:10:09;99896.09;;;21.12;100.00
49945;BME280;35838;49.134;9.212;2023-06-22T04:11:43;99901.38;;;20.93;100.00
49945;BME280;35838;49.134;9.212;2023-06-22T04:13:17;99905.38;;;20.83;100.00
49945;BME280;35838;49.134;9.212;2023-06-22T04:14:50;99911.41;;;20.85;100.00
49945;BME280;35838;49.134;9.212;2023-06-22T04:16:24;99910.38;;;20.89;100.00
49945;BME280;35838;49.134;9.212;2023-06-22T04:17:57;99901.09;;;21.00;100.00
49945;BME280;35838;49.134;9.212;2023-06-22T04:19:31;99897.97;;;20.91;100.00
49945;BME280;35838;49.134;9.212;2023-06-22T04:21:05;99894.66;;;21.05;100.00
49945;BME280;35838;49.134;9.212;2023-06-22T04:22:41;99904.78;;;21.15;100.00
49945;BME280;35838;49.134;9.212;2023-06-22T04:24:16;99900.34;;;21.15;100.00
49945;BME280;35838;49.134;9.212;2023-06-22T04:25:49;99900.84;;;21.23;100.00
49945;BME280;35838;49.134;9.212;2023-06-22T04:27:23;99895.41;;;21.26;100.00
49945;BME280;35838;49.134;9.212;2023-06-22T04:28:54;99892.69;;;21.28;100.00
49945;BME280;35838;49.134;9.212;2023-06-22T04:30:28;99898.53;;;21.35;100.00
49945;BME280;35838;49.134;9.212;2023-06-22T04:32:02;99901.97;;;21.37;100.00
49945;BME280;35838;49.134;9.212;2023-06-22T04:33:36;99896.59;;;21.38;100.00
49945;BME280;35838;49.134;9.212;2023-06-22T04:35:11;99888.91;;;21.34;100.00
49945;BME280;35838;49.134;9.212;2023-06-22T04:36:46;99886.13;;;21.37;100.00
49945;BME280;35838;49.134;9.212;2023-06-22T04:38:22;99889.06;;;21.48;100.00
49945;BME280;35838;49.134;9.212;2023-06-22T04:39:56;99885.41;;;21.33;100.00
49945;BME280;35838;49.134;9.212;2023-06-22T04:41:30;99889.75;;;21.34;100.00
49945;BME280;35838;49.134;9.212;2023-06-22T04:43:12;99892.16;;;21.39;100.00
49945;BME280;35838;49.134;9.212;2023-06-22T04:44:45;99886.88;;;21.39;100.00
49945;BME280;35838;49.134;9.212;2023-06-22T04:46:19;99884.88;;;21.44;100.00
49945;BME280;35838;49.134;9.212;2023-06-22T04:47:53;99879.50;;;21.45;100.00
49945;BME280;35838;49.134;9.212;2023-06-22T04:49:27;99881.13;;;21.48;100.00
49945;BME280;35838;49.134;9.212;2023-06-22T04:51:03;99881.13;;;21.48;100.00
49945;BME280;35838;49.134;9.212;2023-06-22T04:52:39;99879.19;;;21.52;100.00
49945;BME280;35838;49.134;9.212;2023-06-22T04:54:15;99875.81;;;21.50;100.00
49945;BME280;35838;49.134;9.212;2023-06-22T04:55:48;99869.50;;;21.52;100.00
49945;BME280;35838;49.134;9.212;2023-06-22T04:57:19;99872.47;;;21.46;100.00
49945;BME280;35838;49.134;9.212;2023-06-22T04:59:03;99866.16;;;21.49;100.00
49945;BME280;35838;49.134;9.212;2023-06-22T05:00:36;99872.16;;;21.52;100.00
49945;BME280;35838;49.134;9.212;2023-06-22T05:02:10;99866.22;;;21.47;100.00
49945;BME280;35838;49.134;9.212;2023-06-22T05:03:44;99866.41;;;21.44;100.00
49945;BME280;35838;49.134;9.212;2023-06-22T05:05:18;99878.28;;;21.53;100.00
49945;BME280;35838;49.134;9.212;2023-06-22T05:06:51;99868.41;;;21.56;100.00
49945;BME280;35838;49.134;9.212;2023-06-22T05:08:25;99871.72;;;21.62;100.00
49945;BME280;35838;49.134;9.212;2023-06-22T05:10:01;99873.44;;;21.63;100.00
49945;BME280;35838;49.134;9.212;2023-06-22T05:11:36;99867.13;;;21.65;100.00
49945;BME280;35838;49.134;9.212;2023-06-22T05:13:09;99863.72;;;21.63;100.00
49945;BME280;35838;49.134;9.212;2023-06-22T05:14:43;99858.97;;;21.70;100.00
49945;BME280;35838;49.134;9.212;2023-06-22T05:16:16;99861.06;;;21.81;100.00
49945;BME280;35838;49.134;9.212;2023-06-22T05:17:54;99859.91;;;21.86;100.00
49945;BME280;35838;49.134;9.212;2023-06-22T05:19:29;99861.06;;;21.81;100.00
49945;BME280;35838;49.134;9.212;2023-06-22T05:21:04;99858.97;;;21.87;100.00
49945;BME280;35838;49.134;9.212;2023-06-22T05:22:37;99853.53;;;21.90;100.00
49945;BME280;35838;49.134;9.212;2023-06-22T05:24:11;99853.69;;;21.87;100.00
49945;BME280;35838;49.134;9.212;2023-06-22T05:25:47;99854.13;;;21.96;100.00
49945;BME280;35838;49.134;9.212;2023-06-22T05:27:21;99843.47;;;21.97;100.00
49945;BME280;35838;49.134;9.212;2023-06-22T05:28:54;99842.63;;;21.97;100.00
49945;BME280;35838;49.134;9.212;2023-06-22T05:30:28;99840.38;;;21.89;100.00
49945;BME280;35838;49.134;9.212;2023-06-22T05:32:02;99841.97;;;21.75;100.00
49945;BME280;35838;49.134;9.212;2023-06-22T05:33:35;99847.16;;;21.77;100.00
49945;BME280;35838;49.134;9.212;2023-06-22T05:35:09;99841.88;;;21.77;100.00
49945;BME280;35838;49.134;9.212;2023-06-22T05:36:43;99845.13;;;21.82;100.00
49945;BME280;35838;49.134;9.212;2023-06-22T05:38:16;99842.19;;;21.88;100.00
49945;BME280;35838;49.134;9.212;2023-06-22T05:39:47;99845.44;;;21.94;100.00
49945;BME280;35838;49.134;9.212;2023-06-22T05:41:24;99844.25;;;21.99;100.00
49945;BME280;35838;49.134;9.212;2023-06-22T05:42:57;99840.53;;;22.03;100.00
49945;BME280;35838;49.134;9.212;2023-06-22T05:44:28;99837.66;;;22.08;100.00
49945;BME280;35838;49.134;9.212;2023-06-22T05:46:02;99833.88;;;22.12;100.00
49945;BME280;35838;49.134;9.212;2023-06-22T05:47:36;99836.13;;;22.20;100.00
49945;BME280;35838;49.134;9.212;2023-06-22T05:49:09;99833.25;;;22.25;100.00
49945;BME280;35838;49.134;9.212;2023-06-22T05:50:43;99830.41;;;22.28;100.00
49945;BME280;35838;49.134;9.212;2023-06-22T05:52:16;99826.69;;;22.32;100.00
49945;BME280;35838;49.134;9.212;2023-06-22T05:53:50;99825.41;;;22.39;100.00
49945;BME280;35838;49.134;9.212;2023-06-22T05:55:24;99832.44;;;22.40;100.00
49945;BME280;35838;49.134;9.212;2023-06-22T05:57:00;99822.69;;;22.41;100.00
49945;BME280;35838;49.134;9.212;2023-06-22T05:58:34;99819.75;;;22.47;100.00
49945;BME280;35838;49.134;9.212;2023-06-22T06:00:08;99833.72;;;22.49;100.00
49945;BME280;35838;49.134;9.212;2023-06-22T06:01:44;99826.66;;;22.49;100.00
49945;BME280;35838;49.134;9.212;2023-06-22T06:03:20;99831.59;;;22.56;100.00
49945;BME280;35838;49.134;9.212;2023-06-22T06:04:54;99824.44;;;22.58;100.00
49945;BME280;35838;49.134;9.212;2023-06-22T06:06:27;99820.84;;;22.59;100.00
49945;BME280;35838;49.134;9.212;2023-06-22T06:08:01;99815.31;;;22.63;100.00
49945;BME280;35838;49.134;9.212;2023-06-22T06:09:35;99810.59;;;22.68;100.00
49945;BME280;35838;49.134;9.212;2023-06-22T06:11:09;99807.13;;;22.68;100.00
49945;BME280;35838;49.134;9.212;2023-06-22T06:12:45;99808.72;;;22.71;100.00
49945;BME280;35838;49.134;9.212;2023-06-22T06:14:19;99804.47;;;22.68;100.00
49945;BME280;35838;49.134;9.212;2023-06-22T06:15:52;99812.81;;;22.76;100.00
49945;BME280;35838;49.134;9.212;2023-06-22T06:17:26;99810.75;;;22.81;100.00
49945;BME280;35838;49.134;9.212;2023-06-22T06:19:00;99805.47;;;22.81;100.00
49945;BME280;35838;49.134;9.212;2023-06-22T06:20:33;99810.34;;;22.89;100.00
49945;BME280;35838;49.134;9.212;2023-06-22T06:22:07;99809.47;;;22.89;100.00
49945;BME280;35838;49.134;9.212;2023-06-22T06:23:40;99806.28;;;22.98;100.00
49945;BME280;35838;49.134;9.212;2023-06-22T06:25:14;99799.91;;;22.86;100.00
49945;BME280;35838;49.134;9.212;2023-06-22T06:26:50;99805.63;;;22.94;100.00
49945;BME280;35838;49.134;9.212;2023-06-22T06:28:27;99806.22;;;22.99;100.00
49945;BME280;35838;49.134;9.212;2023-06-22T06:30:00;99806.63;;;23.08;100.00
49945;BME280;35838;49.134;9.212;2023-06-22T06:31:34;99809.84;;;23.13;100.00
49945;BME280;35838;49.134;9.212;2023-06-22T06:33:08;99800.66;;;23.20;100.00
49945;BME280;35838;49.134;9.212;2023-06-22T06:34:42;99799.44;;;23.26;100.00
49945;BME280;35838;49.134;9.212;2023-06-22T06:36:16;99789.25;;;23.34;100.00
49945;BME280;35838;49.134;9.212;2023-06-22T06:37:50;99790.84;;;23.37;100.00
49945;BME280;35838;49.134;9.212;2023-06-22T06:39:23;99782.63;;;23.41;100.00
49945;BME280;35838;49.134;9.212;2023-06-22T06:40:57;99781.41;;;23.47;100.00
49945;BME280;35838;49.134;9.212;2023-06-22T06:42:31;99766.03;;;23.54;100.00
49945;BME280;35838;49.134;9.212;2023-06-22T06:44:07;99766.97;;;23.67;100.00
49945;BME280;35838;49.134;9.212;2023-06-22T06:45:41;99771.91;;;23.73;100.00
49945;BME280;35838;49.134;9.212;2023-06-22T06:47:14;99769.81;;;23.78;100.00
49945;BME280;35838;49.134;9.212;2023-06-22T06:48:48;99769.53;;;23.83;100.00
49945;BME280;35838;49.134;9.212;2023-06-22T06:50:21;99777.97;;;23.90;100.00
49945;BME280;35838;49.134;9.212;2023-06-22T06:52:14;99777.97;;;23.90;100.00
49945;BME280;35838;49.134;9.212;2023-06-22T06:53:53;99775.59;;;23.85;100.00
49945;BME280;35838;49.134;9.212;2023-06-22T06:55:27;99773.63;;;23.89;100.00
49945;BME280;35838;49.134;9.212;2023-06-22T06:57:03;99778.72;;;23.92;100.00
49945;BME280;35838;49.134;9.212;2023-06-22T06:58:38;99772.69;;;24.04;100.00
49945;BME280;35838;49.134;9.212;2023-06-22T07:00:15;99770.50;;;24.11;100.00
49945;BME280;35838;49.134;9.212;2023-06-22T07:01:49;99771.06;;;24.16;100.00
49945;BME280;35838;49.134;9.212;2023-06-22T07:03:23;99758.84;;;24.14;100.00
49945;BME280;35838;49.134;9.212;2023-06-22T07:04:56;99749.78;;;24.18;100.00
49945;BME280;35838;49.134;9.212;2023-06-22T07:06:30;99753.16;;;24.20;100.00
49945;BME280;35838;49.134;9.212;2023-06-22T07:08:04;99750.97;;;24.27;100.00
49945;BME280;35838;49.134;9.212;2023-06-22T07:09:38;99748.13;;;24.30;100.00
49945;BME280;35838;49.134;9.212;2023-06-22T07:11:11;99746.38;;;24.43;100.00
49945;BME280;35838;49.134;9.212;2023-06-22T07:12:45;99742.03;;;24.42;100.00
49945;BME280;35838;49.134;9.212;2023-06-22T07:14:19;99740.06;;;24.46;100.00
49945;BME280;35838;49.134;9.212;2023-06-22T07:15:55;99728.69;;;24.44;100.00
49945;BME280;35838;49.134;9.212;2023-06-22T07:17:28;99720.03;;;24.54;100.00
49945;BME280;35838;49.134;9.212;2023-06-22T07:19:02;99722.69;;;24.54;100.00
49945;BME280;35838;49.134;9.212;2023-06-22T07:20:36;99714.41;;;24.59;100.00
49945;BME280;35838;49.134;9.212;2023-06-22T07:22:09;99716.66;;;24.65;100.00
49945;BME280;35838;49.134;9.212;2023-06-22T07:23:43;99715.25;;;24.60;100.00
49945;BME280;35838;49.134;9.212;2023-06-22T07:25:17;99708.69;;;24.65;100.00
49945;BME280;35838;49.134;9.212;2023-06-22T07:26:50;99712.69;;;24.73;100.00
49945;BME280;35838;49.134;9.212;2023-06-22T07:28:24;99707.69;;;24.68;100.00
49945;BME280;35838;49.134;9.212;2023-06-22T07:29:58;99713.84;;;24.68;100.00
49945;BME280;35838;49.134;9.212;2023-06-22T07:31:34;99708.13;;;24.75;100.00
49945;BME280;35838;49.134;9.212;2023-06-22T07:33:08;99706.09;;;24.78;100.00
49945;BME280;35838;49.134;9.212;2023-06-22T07:34:41;99708.47;;;24.83;100.00
49945;BME280;35838;49.134;9.212;2023-06-22T07:36:13;99707.50;;;24.84;100.00
49945;BME280;35838;49.134;9.212;2023-06-22T07:37:46;99701.13;;;24.86;100.00
49945;BME280;35838;49.134;9.212;2023-06-22T07:39:20;99698.41;;;24.88;100.00
49945;BME280;35838;49.134;9.212;2023-06-22T07:40:56;99696.38;;;24.79;100.00
49945;BME280;35838;49.134;9.212;2023-06-22T07:42:30;99689.03;;;24.82;100.00
49945;BME280;35838;49.134;9.212;2023-06-22T07:44:04;99694.69;;;24.91;100.00
49945;BME280;35838;49.134;9.212;2023-06-22T07:45:37;99689.81;;;24.84;100.00
49945;BME280;35838;49.134;9.212;2023-06-22T07:47:15;99678.56;;;24.94;100.00
49945;BME280;35838;49.134;9.212;2023-06-22T07:48:49;99676.13;;;25.03;100.00
49945;BME280;35838;49.134;9.212;2023-06-22T07:50:23;99670.19;;;25.13;100.00
49945;BME280;35838;49.134;9.212;2023-06-22T07:51:57;99670.72;;;25.18;100.00
49945;BME280;35838;49.134;9.212;2023-06-22T07:53:31;99677.31;;;25.25;100.00
49945;BME280;35838;49.134;9.212;2023-06-22T07:55:07;99673.03;;;25.35;100.00
49945;BME280;35838;49.134;9.212;2023-06-22T07:56:40;99671.72;;;25.43;100.00
49945;BME280;35838;49.134;9.212;2023-06-22T07:58:14;99674.88;;;25.48;100.00
49945;BME280;35838;49.134;9.212;2023-06-22T07:59:49;99667.03;;;25.46;100.00
49945;BME280;35838;49.134;9.212;2023-06-22T08:01:23;99677.09;;;25.54;100.00
49945;BME280;35838;49.134;9.212;2023-06-22T08:02:59;99668.19;;;25.55;100.00
49945;BME280;35838;49.134;9.212;2023-06-22T08:04:35;99670.19;;;25.52;100.00
49945;BME280;35838;49.134;9.212;2023-06-22T08:06:09;99667.75;;;25.48;100.00
49945;BME280;35838;49.134;9.212;2023-06-22T08:07:43;99669.13;;;25.54;100.00
49945;BME280;35838;49.134;9.212;2023-06-22T08:09:16;99667.09;;;25.58;100.00
49945;BME280;35838;49.134;9.212;2023-06-22T08:10:50;99673.03;;;25.61;100.00
49945;BME280;35838;49.134;9.212;2023-06-22T08:12:23;99665.63;;;25.67;100.00